Time;durP1;ratioP1;P1;durP2;ratioP2;P2;SDS_P1;SDS_P2;PMS_P1;PMS_P2;Temp;Humidity;BMP_temperature;BMP_pressure;BME280_temperature;BME280_humidity;BME280_pressure;Samples;Min_cycle;Max_cycle;Signal;HPM_P1;HPM_P2
2023/09/14 00:05:03;;;;;;;1.80;1.30;;;26.30;63.20;;;;;;229607;1257;22406;-66
2023/09/14 00:10:06;;;;;;;1.40;1.30;;;26.40;63.40;;;;;;229668;1247;22288;-66
2023/09/14 00:15:09;;;;;;;1.50;1.40;;;26.40;63.50;;;;;;229398;1263;245265;-66
2023/09/14 00:20:19;;;;;;;3.20;1.30;;;26.40;63.70;;;;;;229603;1248;22268;-66
2023/09/14 00:25:22;;;;;;;1.80;1.40;;;26.40;64.00;;;;;;229634;1263;22272;-66
2023/09/14 00:30:24;;;;;;;1.60;1.50;;;26.40;64.50;;;;;;229555;1263;22265;-66
2023/09/14 00:35:27;;;;;;;1.60;1.50;;;26.50;63.90;;;;;;229537;1254;22278;-66
2023/09/14 00:40:30;;;;;;;2.00;1.50;;;26.50;64.10;;;;;;229644;1251;22298;-67
2023/09/14 00:45:33;;;;;;;1.60;1.50;;;26.60;63.70;;;;;;227617;1261;25990;-66
2023/09/14 00:50:36;;;;;;;1.40;1.20;;;26.60;63.80;;;;;;229655;1251;22321;-66
2023/09/14 00:55:40;;;;;;;1.50;1.40;;;26.60;64.00;;;;;;229611;1249;22276;-66
2023/09/14 01:00:47;;;;;;;1.60;1.50;;;26.60;64.00;;;;;;227257;1249;23546;-66
2023/09/14 01:05:50;;;;;;;3.30;1.90;;;26.60;64.20;;;;;;229275;1259;22362;-67
2023/09/14 01:10:54;;;;;;;1.60;1.50;;;26.60;64.30;;;;;;229536;1248;22722;-67
2023/09/14 01:16:23;;;;;;;2.30;1.70;;;26.70;63.90;;;;;;229556;1263;22237;-67
2023/09/14 01:21:29;;;;;;;1.30;1.30;;;26.80;63.50;;;;;;229643;1248;22282;-67
2023/09/14 01:26:34;;;;;;;1.40;1.40;;;26.70;63.40;;;;;;229602;1251;22999;-67
2023/09/14 01:31:38;;;;;;;1.60;1.50;;;26.70;63.50;;;;;;229359;1250;22384;-67
2023/09/14 01:37:00;;;;;;;1.80;1.50;;;26.70;63.40;;;;;;229602;1255;22389;-67
2023/09/14 01:42:04;;;;;;;1.40;1.40;;;26.50;63.70;;;;;;229623;1248;22264;-67
2023/09/14 01:47:07;;;;;;;1.20;1.10;;;26.40;64.00;;;;;;229595;1248;22588;-67
2023/09/14 01:52:10;;;;;;;1.80;1.50;;;26.40;64.10;;;;;;229641;1249;23064;-67
2023/09/14 01:57:13;;;;;;;1.30;1.30;;;26.40;63.90;;;;;;229610;1263;22238;-67
2023/09/14 02:02:16;;;;;;;1.50;1.40;;;26.40;63.70;;;;;;229698;1249;22304;-67
2023/09/14 02:07:19;;;;;;;1.30;1.30;;;26.50;63.70;;;;;;229592;1263;22268;-67
2023/09/14 02:12:21;;;;;;;1.30;1.20;;;26.50;63.60;;;;;;229536;1248;23158;-67
2023/09/14 02:17:24;;;;;;;1.40;1.30;;;26.50;63.40;;;;;;229598;1248;22256;-67
2023/09/14 02:22:27;;;;;;;1.30;1.20;;;26.40;63.60;;;;;;229634;1254;22379;-67
2023/09/14 02:27:29;;;;;;;1.50;1.30;;;26.50;63.50;;;;;;229643;1251;22277;-68
2023/09/14 02:32:32;;;;;;;1.40;1.30;;;26.40;63.60;;;;;;229615;1249;22425;-67
2023/09/14 02:37:35;;;;;;;1.40;1.30;;;26.30;63.60;;;;;;229663;1253;24100;-67
2023/09/14 02:42:38;;;;;;;2.00;1.30;;;26.30;63.60;;;;;;229551;1251;22254;-67
2023/09/14 02:47:41;;;;;;;1.70;1.20;;;26.40;63.50;;;;;;229633;1250;24071;-67
2023/09/14 02:52:43;;;;;;;1.00;1.00;;;26.30;63.50;;;;;;229574;1249;22311;-67
2023/09/14 02:57:46;;;;;;;1.50;1.40;;;26.40;63.30;;;;;;229611;1248;23166;-67
2023/09/14 03:02:49;;;;;;;1.40;1.30;;;26.40;63.30;;;;;;229607;1252;22315;-67
2023/09/14 03:07:52;;;;;;;1.00;1.00;;;26.40;63.40;;;;;;229658;1249;22264;-67
2023/09/14 03:12:55;;;;;;;1.10;1.00;;;26.30;63.60;;;;;;229617;1249;22264;-67
2023/09/14 03:17:58;;;;;;;2.10;1.30;;;26.30;63.70;;;;;;229582;1249;22335;-67
2023/09/14 03:23:02;;;;;;;1.00;1.00;;;26.30;63.60;;;;;;229650;1249;22316;-67
2023/09/14 03:28:05;;;;;;;1.20;1.20;;;26.20;63.60;;;;;;229631;1254;22258;-67
2023/09/14 03:33:09;;;;;;;1.20;1.20;;;26.20;63.60;;;;;;229518;1250;22962;-67
2023/09/14 03:38:12;;;;;;;1.40;1.30;;;26.20;63.60;;;;;;229603;1248;22261;-66
2023/09/14 03:43:15;;;;;;;1.40;1.30;;;26.20;63.60;;;;;;229660;1255;22363;-67
2023/09/14 03:48:18;;;;;;;1.50;1.40;;;26.20;63.60;;;;;;229589;1263;22337;-67
2023/09/14 03:53:21;;;;;;;1.30;1.20;;;26.20;63.60;;;;;;229494;1253;23511;-67
2023/09/14 03:58:25;;;;;;;1.70;1.60;;;26.20;63.60;;;;;;229592;1252;22240;-67
2023/09/14 04:03:28;;;;;;;1.30;1.20;;;26.20;63.60;;;;;;229618;1263;23328;-66
2023/09/14 04:08:31;;;;;;;1.50;1.40;;;26.20;63.60;;;;;;229619;1257;22286;-67
2023/09/14 04:13:35;;;;;;;2.50;1.60;;;26.20;63.70;;;;;;229544;1263;22263;-66
2023/09/14 04:18:40;;;;;;;1.50;1.30;;;26.20;63.70;;;;;;229600;1263;22258;-66
2023/09/14 04:23:45;;;;;;;1.50;1.40;;;26.20;63.70;;;;;;229586;1263;22269;-66
2023/09/14 04:28:49;;;;;;;1.20;1.10;;;26.20;63.70;;;;;;229393;1263;22270;-67
2023/09/14 04:33:52;;;;;;;1.30;1.20;;;26.20;63.70;;;;;;229601;1263;22280;-66
2023/09/14 04:38:55;;;;;;;1.50;1.40;;;26.10;63.70;;;;;;229534;1263;22332;-66
2023/09/14 04:43:58;;;;;;;1.60;1.50;;;26.20;63.80;;;;;;229566;1263;23988;-66
2023/09/14 04:49:01;;;;;;;1.60;1.50;;;26.10;63.60;;;;;;229556;1263;22314;-66
2023/09/14 04:54:04;;;;;;;1.60;1.50;;;26.20;63.60;;;;;;229629;1248;22425;-66
2023/09/14 04:59:08;;;;;;;1.90;1.70;;;26.20;63.70;;;;;;229529;1263;22314;-66
2023/09/14 05:04:10;;;;;;;1.30;1.30;;;26.20;63.60;;;;;;229572;1263;22341;-66
2023/09/14 05:09:13;;;;;;;1.60;1.50;;;26.20;63.50;;;;;;229576;1255;22266;-66
2023/09/14 05:14:16;;;;;;;2.00;1.40;;;26.20;63.80;;;;;;229583;1263;23076;-66
2023/09/14 05:19:19;;;;;;;1.50;1.40;;;26.20;63.50;;;;;;222589;1264;25234;-66
2023/09/14 05:24:22;;;;;;;1.90;1.80;;;26.20;63.50;;;;;;229555;1252;22279;-67
2023/09/14 05:29:25;;;;;;;1.60;1.50;;;26.10;63.70;;;;;;229412;1263;22638;-67
2023/09/14 05:34:27;;;;;;;1.60;1.50;;;26.20;63.50;;;;;;229559;1251;22274;-67
2023/09/14 05:39:30;;;;;;;1.70;1.60;;;26.10;63.40;;;;;;229521;1263;22267;-66
2023/09/14 05:44:33;;;;;;;1.80;1.70;;;26.10;63.60;;;;;;229540;1263;22359;-66
2023/09/14 05:49:36;;;;;;;1.50;1.40;;;26.20;63.30;;;;;;229604;1263;22307;-68
2023/09/14 05:54:39;;;;;;;3.90;1.70;;;26.30;63.40;;;;;;229539;1252;22262;-65
2023/09/14 05:59:42;;;;;;;3.90;2.30;;;26.20;63.40;;;;;;229426;1256;22262;-60
2023/09/14 06:04:47;;;;;;;5.70;1.80;;;26.00;63.30;;;;;;229435;1252;22265;-59
2023/09/14 06:09:49;;;;;;;2.40;1.70;;;25.40;63.30;;;;;;229376;1259;22363;-60
2023/09/14 06:14:52;;;;;;;6.70;2.10;;;25.40;62.40;;;;;;229457;1251;22297;-60
2023/09/14 06:19:54;;;;;;;3.30;1.70;;;25.70;61.50;;;;;;229464;1252;22274;-61
2023/09/14 06:24:57;;;;;;;3.10;1.80;;;25.60;60.80;;;;;;229521;1255;22340;-56
2023/09/14 06:30:00;;;;;;;2.40;1.60;;;25.60;60.90;;;;;;229465;1255;23577;-58
2023/09/14 06:35:03;;;;;;;3.30;1.40;;;25.40;61.10;;;;;;229528;1263;22618;-58
2023/09/14 06:40:07;;;;;;;4.00;1.40;;;25.40;60.80;;;;;;229516;1263;22201;-58
2023/09/14 06:45:10;;;;;;;2.40;1.50;;;25.40;60.70;;;;;;229477;1263;22274;-58
2023/09/14 06:50:12;;;;;;;3.00;1.60;;;25.50;60.20;;;;;;229366;1252;22278;-58
2023/09/14 06:55:15;;;;;;;3.40;1.70;;;25.50;60.20;;;;;;229577;1256;23052;-59
2023/09/14 07:00:21;;;;;;;4.10;1.40;;;25.40;60.60;;;;;;229614;1252;23048;-60
2023/09/14 07:05:24;;;;;;;3.40;1.40;;;25.40;60.50;;;;;;229458;1263;24026;-62
2023/09/14 07:10:26;;;;;;;2.00;1.60;;;25.00;60.60;;;;;;229471;1263;22283;-58
2023/09/14 07:15:29;;;;;;;3.30;1.90;;;24.80;61.10;;;;;;229485;1261;22256;-58
2023/09/14 07:20:32;;;;;;;4.30;1.50;;;24.90;61.10;;;;;;229490;1248;22295;-57
2023/09/14 07:25:34;;;;;;;4.60;1.90;;;24.90;60.90;;;;;;229521;1252;22484;-56
2023/09/14 07:30:37;;;;;;;5.80;1.70;;;24.90;60.90;;;;;;229451;1256;22269;-55
2023/09/14 07:35:40;;;;;;;3.80;2.10;;;24.80;61.00;;;;;;229528;1264;22288;-54
2023/09/14 07:40:43;;;;;;;3.70;2.40;;;24.70;61.30;;;;;;229483;1252;22330;-55
2023/09/14 07:45:45;;;;;;;5.70;2.20;;;24.60;61.30;;;;;;229471;1247;22302;-55
2023/09/14 07:50:49;;;;;;;2.70;2.00;;;24.50;61.80;;;;;;229406;1251;22395;-53
2023/09/14 07:55:54;;;;;;;5.80;2.10;;;24.50;62.10;;;;;;229477;1251;22266;-52
2023/09/14 08:00:57;;;;;;;4.90;2.50;;;24.40;61.50;;;;;;229544;1248;22271;-54
2023/09/14 08:05:59;;;;;;;2.70;2.40;;;24.50;61.50;;;;;;229445;1252;22327;-53
2023/09/14 08:11:02;;;;;;;3.90;2.40;;;24.50;61.40;;;;;;229505;1252;22395;-53
2023/09/14 08:16:05;;;;;;;2.60;1.90;;;24.50;61.50;;;;;;229548;1252;22274;-54
2023/09/14 08:21:08;;;;;;;5.40;2.60;;;24.40;61.40;;;;;;229578;1249;22421;-55
2023/09/14 08:26:10;;;;;;;3.70;2.80;;;24.30;61.40;;;;;;229540;1252;23336;-53
2023/09/14 08:31:13;;;;;;;5.60;3.10;;;24.30;61.10;;;;;;229526;1252;22277;-54
2023/09/14 08:36:16;;;;;;;2.70;2.40;;;24.40;60.90;;;;;;229552;1263;22262;-53
2023/09/14 08:41:40;;;;;;;4.90;3.00;;;24.40;60.70;;;;;;229632;1252;22265;-54
2023/09/14 08:46:44;;;;;;;3.70;2.40;;;24.40;60.70;;;;;;229523;1247;22347;-53
2023/09/14 08:51:50;;;;;;;3.30;2.90;;;24.40;60.90;;;;;;229535;1251;22397;-53
2023/09/14 08:56:53;;;;;;;3.50;2.70;;;24.30;60.30;;;;;;229531;1251;22418;-53
2023/09/14 09:01:57;;;;;;;3.80;2.40;;;24.30;60.50;;;;;;229545;1251;23056;-53
2023/09/14 09:07:03;;;;;;;3.20;2.60;;;24.30;60.00;;;;;;229718;1250;22639;-53
2023/09/14 09:12:06;;;;;;;5.00;2.60;;;24.20;60.00;;;;;;229577;1251;22282;-52
2023/09/14 09:17:09;;;;;;;3.10;2.60;;;24.10;59.90;;;;;;229549;1249;22350;-54
2023/09/14 09:22:14;;;;;;;3.90;2.80;;;24.20;60.00;;;;;;229574;1248;22261;-53
2023/09/14 09:27:26;;;;;;;4.10;3.10;;;24.10;59.80;;;;;;229568;1248;22281;-54
2023/09/14 09:32:29;;;;;;;3.80;2.30;;;24.00;59.50;;;;;;229538;1251;23072;-54
2023/09/14 09:37:35;;;;;;;4.10;2.90;;;24.00;59.00;;;;;;229583;1248;22231;-53
2023/09/14 09:42:37;;;;;;;4.50;2.70;;;23.90;59.10;;;;;;229520;1253;22294;-53
2023/09/14 09:47:41;;;;;;;4.20;3.00;;;24.00;59.20;;;;;;229698;1252;22428;-55
2023/09/14 09:52:47;;;;;;;4.00;3.20;;;24.10;59.60;;;;;;229524;1263;22250;-54
2023/09/14 09:57:52;;;;;;;4.60;2.80;;;24.10;59.60;;;;;;229609;1263;22464;-53
2023/09/14 10:02:55;;;;;;;3.00;2.70;;;24.20;59.70;;;;;;229543;1249;22262;-53
2023/09/14 10:07:59;;;;;;;3.10;2.60;;;24.20;59.70;;;;;;229630;1252;22359;-54
2023/09/14 10:13:05;;;;;;;6.00;3.00;;;24.30;59.40;;;;;;229570;1249;22260;-55
2023/09/14 10:18:08;;;;;;;2.90;2.60;;;24.20;59.00;;;;;;229515;1253;23087;-54
2023/09/14 10:23:14;;;;;;;2.80;2.60;;;24.30;59.20;;;;;;229510;1262;22259;-55
2023/09/14 10:28:20;;;;;;;4.20;2.90;;;24.60;58.50;;;;;;229551;1263;22287;-56
2023/09/14 10:33:25;;;;;;;3.00;2.60;;;24.80;58.30;;;;;;229584;1259;23406;-55
2023/09/14 10:38:29;;;;;;;2.60;2.30;;;24.70;58.30;;;;;;229604;1250;22345;-55
2023/09/14 10:43:32;;;;;;;4.60;2.80;;;24.70;58.60;;;;;;229621;1260;22289;-53
2023/09/14 10:48:35;;;;;;;2.70;2.50;;;24.60;58.50;;;;;;229528;1263;22291;-55
2023/09/14 10:53:42;;;;;;;3.70;2.80;;;24.70;58.60;;;;;;229542;1263;22379;-55
2023/09/14 10:58:44;;;;;;;2.80;2.40;;;24.70;58.70;;;;;;229578;1252;23138;-54
2023/09/14 11:04:18;;;;;;;5.60;3.00;;;24.70;58.60;;;;;;229565;1263;22250;-54
2023/09/14 11:09:21;;;;;;;2.70;2.30;;;24.70;58.40;;;;;;229557;1252;22298;-53
2023/09/14 11:14:24;;;;;;;2.60;2.20;;;24.80;58.30;;;;;;229551;1262;22337;-53
2023/09/14 11:19:31;;;;;;;3.50;2.70;;;24.70;58.40;;;;;;229563;1252;22350;-54
2023/09/14 11:24:37;;;;;;;3.70;2.70;;;24.70;58.50;;;;;;229552;1263;22308;-55
2023/09/14 11:29:45;;;;;;;2.80;2.50;;;25.00;58.10;;;;;;229575;1263;22319;-55
2023/09/14 11:34:49;;;;;;;5.80;2.70;;;25.00;58.20;;;;;;229610;1264;23417;-55
2023/09/14 11:39:56;;;;;;;3.10;2.80;;;24.90;58.40;;;;;;229561;1253;22337;-54
2023/09/14 11:45:05;;;;;;;5.20;3.20;;;24.90;58.50;;;;;;229546;1253;22274;-54
2023/09/14 11:50:14;;;;;;;6.20;3.10;;;25.10;60.80;;;;;;229545;1263;22329;-54
2023/09/14 11:55:20;;;;;;;2.90;2.60;;;25.30;61.10;;;;;;229527;1251;22263;-55
2023/09/14 12:00:23;;;;;;;4.20;2.80;;;25.10;58.50;;;;;;229543;1260;22583;-53
2023/09/14 12:05:26;;;;;;;4.40;2.70;;;24.80;58.20;;;;;;229473;1254;22249;-53
2023/09/14 12:10:30;;;;;;;3.80;2.70;;;24.70;57.50;;;;;;228932;1264;772364;-53
2023/09/14 12:15:34;;;;;;;4.20;2.90;;;24.60;57.00;;;;;;229426;1251;24200;-55
2023/09/14 12:20:42;;;;;;;3.70;2.80;;;24.60;56.10;;;;;;229515;1254;22300;-54
2023/09/14 12:25:47;;;;;;;3.70;3.10;;;24.60;56.20;;;;;;229536;1263;22262;-54
2023/09/14 12:30:50;;;;;;;4.40;2.60;;;24.70;55.60;;;;;;229553;1264;23906;-55
2023/09/14 12:35:53;;;;;;;5.30;2.60;;;24.70;55.80;;;;;;229536;1253;22320;-53
2023/09/14 12:40:55;;;;;;;3.00;2.70;;;24.70;55.70;;;;;;229477;1264;22673;-55
2023/09/14 12:45:58;;;;;;;3.40;3.10;;;24.50;56.30;;;;;;229615;1252;22240;-55
2023/09/14 12:51:06;;;;;;;4.30;3.40;;;24.40;56.90;;;;;;229538;1263;23229;-52
2023/09/14 12:56:12;;;;;;;5.00;2.80;;;24.30;57.10;;;;;;229563;1263;22286;-55
2023/09/14 13:01:15;;;;;;;3.80;2.50;;;24.30;57.40;;;;;;229541;1263;23019;-53
2023/09/14 13:06:17;;;;;;;5.50;3.00;;;24.20;57.10;;;;;;223945;1264;25394;-55
2023/09/14 13:11:32;;;;;;;4.20;3.20;;;24.10;57.10;;;;;;220914;1257;24223;-52
2023/09/14 13:16:52;;;;;;;3.00;2.80;;;24.00;57.50;;;;;;223181;1258;24206;-53
2023/09/14 13:22:05;;;;;;;5.40;3.20;;;23.80;57.40;;;;;;229150;1263;22530;-55
2023/09/14 13:27:08;;;;;;;4.70;2.80;;;23.90;57.40;;;;;;229593;1264;23179;-55
2023/09/14 13:32:12;;;;;;;3.60;2.90;;;24.00;57.40;;;;;;229570;1264;22339;-54
2023/09/14 13:37:17;;;;;;;3.30;2.90;;;24.00;57.40;;;;;;229592;1264;22269;-53
2023/09/14 13:42:19;;;;;;;3.60;2.90;;;24.00;57.50;;;;;;224898;1264;25298;-55
2023/09/14 13:47:23;;;;;;;3.50;2.50;;;23.90;57.50;;;;;;226087;1263;22542;-53
2023/09/14 13:52:26;;;;;;;3.60;3.00;;;23.80;57.60;;;;;;220862;1248;24292;-52
2023/09/14 13:57:29;;;;;;;5.30;2.90;;;23.80;57.60;;;;;;224944;1247;24217;-54
2023/09/14 14:02:32;;;;;;;5.90;2.80;;;24.00;57.40;;;;;;229542;1264;22422;-53
2023/09/14 14:07:35;;;;;;;3.40;3.00;;;24.10;57.40;;;;;;225399;1264;24209;-53
2023/09/14 14:12:38;;;;;;;4.70;2.90;;;24.20;57.20;;;;;;223936;1264;25356;-53
2023/09/14 14:17:42;;;;;;;6.00;3.50;;;24.30;57.10;;;;;;229473;1264;22318;-54
2023/09/14 14:22:45;;;;;;;5.90;2.90;;;24.40;57.10;;;;;;224874;1264;26010;-54
2023/09/14 14:27:48;;;;;;;3.00;2.80;;;24.50;56.90;;;;;;223362;1256;22562;-54
2023/09/14 14:32:51;;;;;;;3.20;2.90;;;24.40;57.00;;;;;;223553;1248;24265;-54
2023/09/14 14:37:54;;;;;;;3.00;2.70;;;24.40;57.10;;;;;;221244;1264;22520;-53
2023/09/14 14:42:57;;;;;;;2.80;2.60;;;24.30;57.00;;;;;;229612;1263;22419;-53
2023/09/14 14:48:00;;;;;;;3.80;2.70;;;24.30;56.60;;;;;;222010;1264;26414;-53
2023/09/14 14:53:04;;;;;;;3.50;3.00;;;24.10;56.10;;;;;;229563;1264;22356;-53
2023/09/14 14:58:07;;;;;;;3.50;2.50;;;24.20;56.10;;;;;;221030;1263;26159;-52
2023/09/14 15:03:11;;;;;;;2.80;2.60;;;24.10;56.00;;;;;;221096;1264;25298;-53
2023/09/14 15:08:14;;;;;;;3.60;2.60;;;24.10;56.30;;;;;;221233;1264;25356;-52
2023/09/14 15:13:18;;;;;;;3.10;2.80;;;24.10;56.30;;;;;;229571;1264;22338;-53
2023/09/14 15:18:21;;;;;;;4.80;2.90;;;24.20;56.10;;;;;;229583;1247;22315;-50
2023/09/14 15:23:25;;;;;;;3.90;3.60;;;24.30;55.70;;;;;;227554;1262;24216;-52
2023/09/14 15:28:29;;;;;;;2.70;2.40;;;24.30;55.60;;;;;;223761;1254;24251;-53
2023/09/14 15:33:33;;;;;;;6.30;3.30;;;24.30;55.70;;;;;;226103;1248;22777;-54
2023/09/14 15:38:41;;;;;;;4.90;3.10;;;24.40;56.10;;;;;;229549;1247;24075;-53
2023/09/14 15:43:48;;;;;;;5.70;3.60;;;24.40;56.00;;;;;;229580;1263;22315;-53
2023/09/14 15:48:52;;;;;;;3.80;3.30;;;24.70;57.30;;;;;;223014;1263;24209;-53
2023/09/14 15:53:56;;;;;;;5.90;3.50;;;24.80;57.60;;;;;;221033;1247;23925;-50
2023/09/14 15:59:13;;;;;;;4.50;3.90;;;24.70;58.00;;;;;;227379;1263;22654;-52
2023/09/14 16:04:20;;;;;;;7.20;3.60;;;24.70;58.20;;;;;;229415;1251;22331;-53
2023/09/14 16:09:54;;;;;;;6.10;3.60;;;24.80;59.40;;;;;;224038;1263;22631;-54
2023/09/14 16:15:00;;;;;;;5.90;3.20;;;24.70;58.80;;;;;;229533;1253;22781;-53
2023/09/14 16:20:08;;;;;;;4.50;3.30;;;24.60;57.70;;;;;;229388;1249;22401;-55
2023/09/14 16:25:20;;;;;;;3.50;3.20;;;24.70;57.10;;;;;;229443;1260;23128;-54
2023/09/14 16:30:29;;;;;;;6.60;3.00;;;24.80;57.50;;;;;;229502;1263;24046;-55
2023/09/14 16:35:42;;;;;;;4.50;3.00;;;24.60;57.20;;;;;;229563;1247;22418;-55
2023/09/14 16:41:03;;;;;;;7.80;3.70;;;24.60;57.30;;;;;;229582;1248;22295;-53
2023/09/14 16:46:36;;;;;;;3.00;2.60;;;24.60;57.20;;;;;;229561;1248;22254;-54
2023/09/14 16:52:05;;;;;;;4.20;2.80;;;24.60;57.20;;;;;;229527;1247;22258;-56
2023/09/14 16:57:30;;;;;;;2.90;2.70;;;24.50;57.80;;;;;;229555;1248;22285;-57
2023/09/14 17:02:52;;;;;;;5.30;2.70;;;24.50;58.40;;;;;;229328;1247;22860;-58
2023/09/14 17:08:26;;;;;;;7.40;3.00;;;24.60;57.90;;;;;;229572;1251;22286;-59
2023/09/14 17:13:29;;;;;;;6.60;3.40;;;24.60;57.80;;;;;;229560;1247;22302;-58
2023/09/14 17:18:33;;;;;;;10.00;3.90;;;24.60;57.80;;;;;;229537;1248;22267;-57
2023/09/14 17:23:36;;;;;;;11.30;4.10;;;24.60;58.30;;;;;;229557;1248;22493;-57
2023/09/14 17:28:39;;;;;;;4.20;3.40;;;24.50;58.20;;;;;;229570;1247;22262;-57
2023/09/14 17:33:44;;;;;;;6.60;3.90;;;24.50;58.50;;;;;;229575;1247;24065;-57
2023/09/14 17:38:48;;;;;;;8.60;3.50;;;24.50;58.70;;;;;;229554;1248;22390;-57
2023/09/14 17:43:51;;;;;;;21.30;15.80;;;24.50;58.70;;;;;;229591;1247;22266;-57
2023/09/14 17:48:59;;;;;;;43.70;31.90;;;24.70;58.40;;;;;;229548;1248;22276;-57
2023/09/14 17:54:04;;;;;;;34.40;19.90;;;24.90;59.70;;;;;;229665;1247;22285;-58
2023/09/14 17:59:08;;;;;;;30.70;23.80;;;24.90;60.50;;;;;;229542;1247;22326;-57
2023/09/14 18:04:16;;;;;;;24.90;17.40;;;24.90;59.90;;;;;;229632;1251;22267;-58
2023/09/14 18:09:25;;;;;;;20.60;15.00;;;25.00;59.60;;;;;;229576;1248;22253;-58
2023/09/14 18:14:28;;;;;;;20.00;12.00;;;24.80;59.60;;;;;;229557;1249;22354;-58
2023/09/14 18:19:33;;;;;;;17.20;9.80;;;24.40;58.80;;;;;;229615;1247;22350;-58
2023/09/14 18:24:38;;;;;;;18.10;7.30;;;24.00;59.10;;;;;;229630;1247;22278;-60
2023/09/14 18:29:42;;;;;;;12.60;7.50;;;23.80;59.50;;;;;;229587;1248;22349;-66
2023/09/14 18:34:47;;;;;;;11.30;6.60;;;24.00;59.30;;;;;;229575;1252;22348;-67
2023/09/14 18:39:52;;;;;;;14.50;6.30;;;24.40;58.40;;;;;;229529;1257;23197;-69
2023/09/14 18:45:03;;;;;;;17.00;6.30;;;24.40;58.10;;;;;;229573;1247;22398;-68
2023/09/14 18:50:07;;;;;;;12.20;6.60;;;24.60;57.70;;;;;;229598;1248;22246;-68
2023/09/14 18:55:12;;;;;;;9.30;5.70;;;24.70;57.80;;;;;;229656;1248;22987;-65
2023/09/14 19:00:18;;;;;;;15.30;7.00;;;24.70;58.50;;;;;;229648;1248;22264;-67
2023/09/14 19:05:22;;;;;;;12.00;5.70;;;24.90;58.60;;;;;;229408;1248;22719;-69
2023/09/14 19:10:27;;;;;;;12.60;5.70;;;24.90;58.90;;;;;;229548;1249;22274;-65
2023/09/14 19:15:37;;;;;;;10.20;5.80;;;25.00;58.70;;;;;;229623;1248;23180;-64
2023/09/14 19:20:49;;;;;;;12.60;6.30;;;25.10;60.10;;;;;;229577;1252;22275;-65
2023/09/14 19:25:54;;;;;;;16.10;5.20;;;25.10;59.80;;;;;;229658;1248;22248;-65
2023/09/14 19:30:58;;;;;;;7.80;5.30;;;25.30;59.50;;;;;;229573;1252;22294;-65
2023/09/14 19:36:02;;;;;;;11.00;5.00;;;25.30;59.30;;;;;;229634;1263;22254;-65
2023/09/14 19:41:09;;;;;;;11.60;5.80;;;25.40;59.10;;;;;;229550;1258;22339;-66
2023/09/14 19:46:13;;;;;;;8.10;4.90;;;25.30;59.70;;;;;;229625;1248;23503;-68
2023/09/14 19:51:18;;;;;;;9.30;4.90;;;25.10;59.80;;;;;;229573;1255;22268;-69
2023/09/14 19:56:25;;;;;;;10.20;5.00;;;25.20;59.90;;;;;;229581;1260;22282;-66
2023/09/14 20:01:29;;;;;;;7.50;4.60;;;25.20;60.20;;;;;;229604;1249;22728;-66
2023/09/14 20:06:32;;;;;;;10.80;5.00;;;25.20;59.90;;;;;;229590;1263;22277;-66
2023/09/14 20:11:35;;;;;;;6.30;4.60;;;25.10;60.00;;;;;;229592;1250;22328;-67
2023/09/14 20:16:38;;;;;;;13.10;5.90;;;24.90;60.40;;;;;;229578;1248;22257;-62
2023/09/14 20:21:42;;;;;;;10.40;4.90;;;24.90;60.50;;;;;;229516;1248;22291;-62
2023/09/14 20:26:45;;;;;;;11.00;4.80;;;24.80;60.20;;;;;;229562;1263;22291;-63
2023/09/14 20:31:50;;;;;;;17.80;5.80;;;24.90;60.60;;;;;;229491;1248;22269;-63
2023/09/14 20:36:54;;;;;;;10.20;5.70;;;24.90;61.30;;;;;;229463;1263;22265;-63
2023/09/14 20:41:57;;;;;;;16.80;6.20;;;25.10;61.60;;;;;;229471;1258;22286;-63
2023/09/14 20:47:00;;;;;;;10.20;5.40;;;24.90;62.40;;;;;;229373;1248;22290;-62
2023/09/14 20:52:03;;;;;;;11.60;5.70;;;25.00;63.00;;;;;;229502;1263;22252;-62
2023/09/14 20:57:07;;;;;;;11.30;5.50;;;25.00;63.00;;;;;;229477;1251;22721;-62
2023/09/14 21:02:09;;;;;;;17.40;5.80;;;24.90;63.10;;;;;;229546;1249;22344;-62
2023/09/14 21:07:12;;;;;;;7.50;5.40;;;24.90;62.70;;;;;;229530;1248;22765;-62
2023/09/14 21:12:15;;;;;;;11.40;5.80;;;24.90;62.90;;;;;;229576;1249;22267;-61
2023/09/14 21:17:17;;;;;;;10.70;5.50;;;25.00;62.60;;;;;;229581;1247;22265;-62
2023/09/14 21:22:24;;;;;;;9.90;5.50;;;24.90;63.00;;;;;;229582;1249;22333;-60
2023/09/14 21:27:27;;;;;;;8.80;4.90;;;24.90;62.60;;;;;;229526;1247;22323;-62
2023/09/14 21:32:29;;;;;;;7.80;4.80;;;24.80;62.50;;;;;;229478;1247;24245;-63
2023/09/14 21:37:32;;;;;;;11.90;5.10;;;24.80;62.10;;;;;;229597;1247;22298;-63
2023/09/14 21:42:35;;;;;;;10.30;5.50;;;24.90;63.00;;;;;;229553;1247;22331;-62
2023/09/14 21:47:38;;;;;;;11.60;4.90;;;25.00;62.90;;;;;;229556;1248;22459;-61
2023/09/14 21:52:41;;;;;;;10.90;5.50;;;24.90;62.90;;;;;;229505;1248;22269;-63
2023/09/14 21:57:44;;;;;;;8.40;5.20;;;24.90;62.60;;;;;;229523;1251;22293;-62
2023/09/14 22:02:47;;;;;;;7.50;4.70;;;24.80;62.00;;;;;;229612;1248;22388;-62
2023/09/14 22:07:50;;;;;;;7.40;5.20;;;24.80;62.10;;;;;;229634;1249;22323;-62
2023/09/14 22:12:53;;;;;;;8.50;5.40;;;24.80;61.90;;;;;;229596;1251;22429;-62
2023/09/14 22:17:56;;;;;;;7.00;4.70;;;24.90;61.90;;;;;;229619;1248;22266;-62
2023/09/14 22:22:58;;;;;;;6.00;4.70;;;24.80;62.00;;;;;;229632;1249;22439;-62
2023/09/14 22:28:02;;;;;;;6.00;4.60;;;24.70;62.20;;;;;;229586;1255;22284;-62
2023/09/14 22:33:05;;;;;;;10.70;5.10;;;24.80;62.20;;;;;;229557;1248;22280;-62
2023/09/14 22:38:07;;;;;;;6.40;4.50;;;24.70;61.90;;;;;;229549;1247;22258;-62
2023/09/14 22:43:10;;;;;;;6.20;5.00;;;24.70;62.00;;;;;;229600;1251;22269;-61
2023/09/14 22:48:13;;;;;;;5.90;4.90;;;24.70;62.00;;;;;;229465;1263;22302;-62
2023/09/14 22:53:16;;;;;;;5.30;4.10;;;24.70;61.90;;;;;;229557;1247;22249;-62
2023/09/14 22:58:18;;;;;;;4.70;4.30;;;24.70;61.90;;;;;;229573;1255;23232;-62
2023/09/14 23:03:21;;;;;;;4.90;4.20;;;24.70;61.80;;;;;;229500;1263;22324;-62
2023/09/14 23:08:25;;;;;;;5.90;4.50;;;24.70;61.70;;;;;;229516;1251;22373;-61
2023/09/14 23:13:29;;;;;;;6.20;4.60;;;24.70;61.70;;;;;;229561;1248;22437;-61
2023/09/14 23:18:32;;;;;;;5.00;4.20;;;24.70;61.70;;;;;;229508;1252;22259;-62
2023/09/14 23:23:34;;;;;;;6.10;4.20;;;24.70;61.70;;;;;;229565;1252;22282;-62
2023/09/14 23:28:37;;;;;;;5.30;4.00;;;24.70;61.80;;;;;;229567;1263;22455;-62
2023/09/14 23:33:40;;;;;;;5.60;4.10;;;24.70;61.80;;;;;;229599;1263;22664;-61
2023/09/14 23:38:43;;;;;;;8.30;4.60;;;24.70;61.80;;;;;;229567;1248;22257;-61
2023/09/14 23:43:46;;;;;;;4.90;4.10;;;24.70;61.90;;;;;;229563;1263;22298;-62
2023/09/14 23:48:49;;;;;;;6.70;4.40;;;24.70;61.70;;;;;;229590;1264;22267;-62
2023/09/14 23:53:54;;;;;;;7.00;4.20;;;24.70;61.80;;;;;;229546;1252;22677;-62
2023/09/14 23:58:57;;;;;;;3.70;3.40;;;24.70;61.80;;;;;;229548;1263;22248;-62
